Terminal Aerodrome Forecast
Issued by NWS

Home | Current Version | Previous Version | Text Only | Print | Product List | Glossary On
Versions: 1 2 3 4 5 6 7 8 9 10 11 12 13 14 15 16 17
000
FTUS43 KFGF 291100
TAFDVL
TAF
KDVL 291130Z 2912/3012 34023G30KT P6SM OVC015
     FM291400 32026G32KT P6SM SCT025
     FM292000 32017G25KT P6SM SKC
     FM292300 31011KT P6SM SCT250
     FM300300 VRB06KT P6SM BKN250
      AMD LTD TO CLD VIS AND WIND=

USA.gov is the U.S. government's official web portal to all federal, state and local government web resources and services.